sensor_id;sensor_type;location;lat;lon;timestamp;P1;durP1;ratioP1;P2;durP2;ratioP2
70406;SDS011;57821;52.202;0.154;2022-12-17T00:01:31;39.35;;;18.17;;
70406;SDS011;57821;52.202;0.154;2022-12-17T00:03:58;36.85;;;17.25;;
70406;SDS011;57821;52.202;0.154;2022-12-17T00:06:25;41.13;;;18.10;;
70406;SDS011;57821;52.202;0.154;2022-12-17T00:08:51;39.08;;;17.92;;
70406;SDS011;57821;52.202;0.154;2022-12-17T00:11:17;41.05;;;17.00;;
70406;SDS011;57821;52.202;0.154;2022-12-17T00:13:44;35.67;;;18.17;;
70406;SDS011;57821;52.202;0.154;2022-12-17T00:16:10;42.58;;;18.48;;
70406;SDS011;57821;52.202;0.154;2022-12-17T00:18:37;40.47;;;19.02;;
70406;SDS011;57821;52.202;0.154;2022-12-17T00:21:04;41.35;;;18.95;;
70406;SDS011;57821;52.202;0.154;2022-12-17T00:23:31;38.47;;;18.23;;
70406;SDS011;57821;52.202;0.154;2022-12-17T00:26:00;35.58;;;16.95;;
70406;SDS011;57821;52.202;0.154;2022-12-17T00:28:27;32.35;;;16.92;;
70406;SDS011;57821;52.202;0.154;2022-12-17T00:30:53;41.88;;;18.10;;
70406;SDS011;57821;52.202;0.154;2022-12-17T00:33:21;34.60;;;18.33;;
70406;SDS011;57821;52.202;0.154;2022-12-17T00:35:50;40.10;;;18.85;;
70406;SDS011;57821;52.202;0.154;2022-12-17T00:38:17;39.63;;;17.45;;
70406;SDS011;57821;52.202;0.154;2022-12-17T00:40:49;43.03;;;18.50;;
70406;SDS011;57821;52.202;0.154;2022-12-17T00:43:17;37.58;;;17.42;;
70406;SDS011;57821;52.202;0.154;2022-12-17T00:45:46;47.03;;;19.52;;
70406;SDS011;57821;52.202;0.154;2022-12-17T00:48:13;40.28;;;18.08;;
70406;SDS011;57821;52.202;0.154;2022-12-17T00:50:39;47.33;;;18.52;;
70406;SDS011;57821;52.202;0.154;2022-12-17T00:53:06;39.40;;;18.17;;
70406;SDS011;57821;52.202;0.154;2022-12-17T00:55:32;47.45;;;18.77;;
70406;SDS011;57821;52.202;0.154;2022-12-17T00:57:59;44.55;;;20.50;;
70406;SDS011;57821;52.202;0.154;2022-12-17T01:00:25;42.17;;;18.52;;
70406;SDS011;57821;52.202;0.154;2022-12-17T01:02:52;42.17;;;18.88;;
70406;SDS011;57821;52.202;0.154;2022-12-17T01:05:19;36.65;;;18.88;;
70406;SDS011;57821;52.202;0.154;2022-12-17T01:07:45;47.05;;;18.20;;
70406;SDS011;57821;52.202;0.154;2022-12-17T01:10:12;39.90;;;18.17;;
70406;SDS011;57821;52.202;0.154;2022-12-17T01:12:38;36.95;;;18.58;;
70406;SDS011;57821;52.202;0.154;2022-12-17T01:15:05;45.40;;;18.45;;
70406;SDS011;57821;52.202;0.154;2022-12-17T01:17:32;47.08;;;18.98;;
70406;SDS011;57821;52.202;0.154;2022-12-17T01:19:58;36.95;;;19.45;;
70406;SDS011;57821;52.202;0.154;2022-12-17T01:22:25;48.95;;;20.98;;
70406;SDS011;57821;52.202;0.154;2022-12-17T01:24:51;42.58;;;20.27;;
70406;SDS011;57821;52.202;0.154;2022-12-17T01:27:21;47.35;;;22.48;;
70406;SDS011;57821;52.202;0.154;2022-12-17T01:29:49;46.20;;;20.90;;
70406;SDS011;57821;52.202;0.154;2022-12-17T01:32:16;47.83;;;20.25;;
70406;SDS011;57821;52.202;0.154;2022-12-17T01:34:43;50.20;;;22.23;;
70406;SDS011;57821;52.202;0.154;2022-12-17T01:37:09;51.63;;;21.00;;
70406;SDS011;57821;52.202;0.154;2022-12-17T01:39:38;45.78;;;21.83;;
70406;SDS011;57821;52.202;0.154;2022-12-17T01:42:07;44.03;;;20.60;;
70406;SDS011;57821;52.202;0.154;2022-12-17T01:47:07;44.90;;;21.15;;
70406;SDS011;57821;52.202;0.154;2022-12-17T01:49:34;46.53;;;20.77;;
70406;SDS011;57821;52.202;0.154;2022-12-17T01:52:02;43.05;;;21.90;;
70406;SDS011;57821;52.202;0.154;2022-12-17T01:54:28;41.35;;;20.33;;
70406;SDS011;57821;52.202;0.154;2022-12-17T01:56:55;46.60;;;21.35;;
70406;SDS011;57821;52.202;0.154;2022-12-17T01:59:29;43.05;;;21.25;;
70406;SDS011;57821;52.202;0.154;2022-12-17T02:02:04;43.05;;;18.80;;
70406;SDS011;57821;52.202;0.154;2022-12-17T02:04:31;43.55;;;19.38;;
70406;SDS011;57821;52.202;0.154;2022-12-17T02:07:02;39.28;;;20.38;;
70406;SDS011;57821;52.202;0.154;2022-12-17T02:17:52;41.65;;;19.00;;
70406;SDS011;57821;52.202;0.154;2022-12-17T02:20:37;47.28;;;19.80;;
70406;SDS011;57821;52.202;0.154;2022-12-17T02:23:10;40.80;;;19.38;;
70406;SDS011;57821;52.202;0.154;2022-12-17T02:26:01;37.13;;;17.67;;
70406;SDS011;57821;52.202;0.154;2022-12-17T02:28:37;35.92;;;17.75;;
70406;SDS011;57821;52.202;0.154;2022-12-17T02:31:08;37.42;;;18.75;;
70406;SDS011;57821;52.202;0.154;2022-12-17T02:33:35;39.95;;;17.38;;
70406;SDS011;57821;52.202;0.154;2022-12-17T02:36:04;40.72;;;18.15;;
70406;SDS011;57821;52.202;0.154;2022-12-17T02:38:31;36.55;;;17.60;;
70406;SDS011;57821;52.202;0.154;2022-12-17T02:40:59;31.13;;;16.67;;
70406;SDS011;57821;52.202;0.154;2022-12-17T02:43:26;39.53;;;16.75;;
70406;SDS011;57821;52.202;0.154;2022-12-17T02:45:54;36.65;;;15.85;;
70406;SDS011;57821;52.202;0.154;2022-12-17T02:48:22;30.25;;;15.48;;
70406;SDS011;57821;52.202;0.154;2022-12-17T02:50:49;36.13;;;16.75;;
70406;SDS011;57821;52.202;0.154;2022-12-17T02:53:16;33.33;;;15.88;;
70406;SDS011;57821;52.202;0.154;2022-12-17T02:55:45;35.65;;;16.10;;
70406;SDS011;57821;52.202;0.154;2022-12-17T02:58:12;36.20;;;16.98;;
70406;SDS011;57821;52.202;0.154;2022-12-17T03:00:39;40.53;;;17.88;;
70406;SDS011;57821;52.202;0.154;2022-12-17T03:03:06;37.15;;;16.35;;
70406;SDS011;57821;52.202;0.154;2022-12-17T03:05:33;39.78;;;16.15;;
70406;SDS011;57821;52.202;0.154;2022-12-17T03:08:16;40.83;;;16.63;;
70406;SDS011;57821;52.202;0.154;2022-12-17T03:10:43;36.50;;;15.75;;
70406;SDS011;57821;52.202;0.154;2022-12-17T03:13:09;33.72;;;15.90;;
70406;SDS011;57821;52.202;0.154;2022-12-17T03:15:53;33.63;;;15.38;;
70406;SDS011;57821;52.202;0.154;2022-12-17T03:18:19;35.25;;;15.88;;
70406;SDS011;57821;52.202;0.154;2022-12-17T03:20:45;32.30;;;15.02;;
70406;SDS011;57821;52.202;0.154;2022-12-17T03:23:12;33.13;;;14.95;;
70406;SDS011;57821;52.202;0.154;2022-12-17T03:25:38;30.67;;;14.65;;
70406;SDS011;57821;52.202;0.154;2022-12-17T03:28:06;32.45;;;14.40;;
70406;SDS011;57821;52.202;0.154;2022-12-17T03:30:34;32.72;;;13.65;;
70406;SDS011;57821;52.202;0.154;2022-12-17T03:33:06;28.70;;;13.65;;
70406;SDS011;57821;52.202;0.154;2022-12-17T03:35:33;32.08;;;14.85;;
70406;SDS011;57821;52.202;0.154;2022-12-17T03:38:00;32.45;;;14.60;;
70406;SDS011;57821;52.202;0.154;2022-12-17T03:40:26;34.50;;;14.10;;
70406;SDS011;57821;52.202;0.154;2022-12-17T03:42:53;32.47;;;14.18;;
70406;SDS011;57821;52.202;0.154;2022-12-17T03:45:19;29.80;;;13.88;;
70406;SDS011;57821;52.202;0.154;2022-12-17T03:47:46;31.92;;;13.40;;
70406;SDS011;57821;52.202;0.154;2022-12-17T03:50:12;23.20;;;12.13;;
70406;SDS011;57821;52.202;0.154;2022-12-17T03:52:39;27.42;;;12.65;;
70406;SDS011;57821;52.202;0.154;2022-12-17T03:55:05;28.48;;;12.52;;
70406;SDS011;57821;52.202;0.154;2022-12-17T03:57:32;24.20;;;12.70;;
70406;SDS011;57821;52.202;0.154;2022-12-17T03:59:58;35.03;;;12.85;;
70406;SDS011;57821;52.202;0.154;2022-12-17T04:02:25;25.77;;;12.30;;
70406;SDS011;57821;52.202;0.154;2022-12-17T04:04:51;26.95;;;12.85;;
70406;SDS011;57821;52.202;0.154;2022-12-17T04:07:18;25.83;;;11.52;;
70406;SDS011;57821;52.202;0.154;2022-12-17T04:09:44;22.15;;;10.63;;
70406;SDS011;57821;52.202;0.154;2022-12-17T04:12:14;23.90;;;11.18;;
70406;SDS011;57821;52.202;0.154;2022-12-17T04:14:40;28.02;;;11.07;;
70406;SDS011;57821;52.202;0.154;2022-12-17T04:17:07;22.55;;;10.77;;
70406;SDS011;57821;52.202;0.154;2022-12-17T04:19:33;24.30;;;11.73;;
70406;SDS011;57821;52.202;0.154;2022-12-17T04:21:59;21.70;;;10.10;;
70406;SDS011;57821;52.202;0.154;2022-12-17T04:24:26;29.52;;;11.13;;
70406;SDS011;57821;52.202;0.154;2022-12-17T04:26:53;27.67;;;11.45;;
70406;SDS011;57821;52.202;0.154;2022-12-17T04:29:21;31.42;;;11.05;;
70406;SDS011;57821;52.202;0.154;2022-12-17T04:31:48;26.15;;;11.20;;
70406;SDS011;57821;52.202;0.154;2022-12-17T04:34:14;29.05;;;11.05;;
70406;SDS011;57821;52.202;0.154;2022-12-17T04:36:41;20.48;;;9.95;;
70406;SDS011;57821;52.202;0.154;2022-12-17T04:39:07;22.63;;;10.77;;
70406;SDS011;57821;52.202;0.154;2022-12-17T04:41:34;19.08;;;9.32;;
70406;SDS011;57821;52.202;0.154;2022-12-17T04:44:00;21.85;;;10.27;;
70406;SDS011;57821;52.202;0.154;2022-12-17T04:46:28;27.63;;;10.20;;
70406;SDS011;57821;52.202;0.154;2022-12-17T04:48:55;25.58;;;11.05;;
70406;SDS011;57821;52.202;0.154;2022-12-17T04:51:21;21.55;;;10.10;;
70406;SDS011;57821;52.202;0.154;2022-12-17T04:53:48;26.40;;;10.43;;
70406;SDS011;57821;52.202;0.154;2022-12-17T04:56:14;18.80;;;10.23;;
70406;SDS011;57821;52.202;0.154;2022-12-17T04:58:45;27.73;;;10.38;;
70406;SDS011;57821;52.202;0.154;2022-12-17T05:01:12;28.10;;;11.65;;
70406;SDS011;57821;52.202;0.154;2022-12-17T05:03:39;19.52;;;9.68;;
70406;SDS011;57821;52.202;0.154;2022-12-17T05:06:07;21.30;;;10.25;;
70406;SDS011;57821;52.202;0.154;2022-12-17T05:08:34;21.90;;;9.63;;
70406;SDS011;57821;52.202;0.154;2022-12-17T05:11:06;22.52;;;10.65;;
70406;SDS011;57821;52.202;0.154;2022-12-17T05:13:33;27.08;;;9.55;;
70406;SDS011;57821;52.202;0.154;2022-12-17T05:16:00;20.27;;;9.45;;
70406;SDS011;57821;52.202;0.154;2022-12-17T05:18:26;24.52;;;10.77;;
70406;SDS011;57821;52.202;0.154;2022-12-17T05:20:53;23.20;;;10.32;;
70406;SDS011;57821;52.202;0.154;2022-12-17T05:23:19;23.17;;;10.18;;
70406;SDS011;57821;52.202;0.154;2022-12-17T05:25:46;24.33;;;9.95;;
70406;SDS011;57821;52.202;0.154;2022-12-17T05:28:12;23.42;;;10.50;;
70406;SDS011;57821;52.202;0.154;2022-12-17T05:30:39;20.42;;;9.90;;
70406;SDS011;57821;52.202;0.154;2022-12-17T05:33:05;28.75;;;12.52;;
70406;SDS011;57821;52.202;0.154;2022-12-17T05:35:32;33.08;;;12.18;;
70406;SDS011;57821;52.202;0.154;2022-12-17T05:38:03;23.40;;;10.48;;
70406;SDS011;57821;52.202;0.154;2022-12-17T05:40:30;22.73;;;10.55;;
70406;SDS011;57821;52.202;0.154;2022-12-17T05:42:57;25.35;;;11.70;;
70406;SDS011;57821;52.202;0.154;2022-12-17T05:45:29;28.02;;;12.57;;
70406;SDS011;57821;52.202;0.154;2022-12-17T05:47:56;23.27;;;11.98;;
70406;SDS011;57821;52.202;0.154;2022-12-17T05:50:23;21.25;;;10.52;;
70406;SDS011;57821;52.202;0.154;2022-12-17T05:52:52;44.80;;;10.23;;
70406;SDS011;57821;52.202;0.154;2022-12-17T05:55:19;20.00;;;10.20;;
70406;SDS011;57821;52.202;0.154;2022-12-17T05:57:45;21.23;;;10.68;;
70406;SDS011;57821;52.202;0.154;2022-12-17T06:00:18;30.02;;;11.85;;
70406;SDS011;57821;52.202;0.154;2022-12-17T06:02:44;28.25;;;10.98;;
70406;SDS011;57821;52.202;0.154;2022-12-17T06:05:11;23.45;;;9.82;;
70406;SDS011;57821;52.202;0.154;2022-12-17T06:07:37;24.48;;;9.95;;
70406;SDS011;57821;52.202;0.154;2022-12-17T06:10:04;24.20;;;10.68;;
70406;SDS011;57821;52.202;0.154;2022-12-17T06:12:31;27.13;;;9.95;;
70406;SDS011;57821;52.202;0.154;2022-12-17T06:14:57;26.02;;;10.32;;
70406;SDS011;57821;52.202;0.154;2022-12-17T06:17:23;16.80;;;8.52;;
70406;SDS011;57821;52.202;0.154;2022-12-17T06:19:50;21.20;;;8.50;;
70406;SDS011;57821;52.202;0.154;2022-12-17T06:22:16;27.52;;;11.02;;
70406;SDS011;57821;52.202;0.154;2022-12-17T06:24:43;20.98;;;10.13;;
70406;SDS011;57821;52.202;0.154;2022-12-17T06:27:11;23.42;;;10.60;;
70406;SDS011;57821;52.202;0.154;2022-12-17T06:29:38;25.10;;;10.77;;
70406;SDS011;57821;52.202;0.154;2022-12-17T06:32:05;26.17;;;9.70;;
70406;SDS011;57821;52.202;0.154;2022-12-17T06:34:31;29.45;;;11.68;;
70406;SDS011;57821;52.202;0.154;2022-12-17T06:36:58;29.00;;;11.68;;
70406;SDS011;57821;52.202;0.154;2022-12-17T06:39:24;25.00;;;10.65;;
70406;SDS011;57821;52.202;0.154;2022-12-17T06:41:51;24.40;;;11.13;;
70406;SDS011;57821;52.202;0.154;2022-12-17T06:44:17;25.45;;;11.63;;
70406;SDS011;57821;52.202;0.154;2022-12-17T06:46:44;21.83;;;11.48;;
70406;SDS011;57821;52.202;0.154;2022-12-17T06:49:10;24.27;;;11.15;;
70406;SDS011;57821;52.202;0.154;2022-12-17T06:51:37;23.50;;;11.57;;
70406;SDS011;57821;52.202;0.154;2022-12-17T06:54:03;21.00;;;10.60;;
70406;SDS011;57821;52.202;0.154;2022-12-17T06:56:29;25.40;;;11.82;;
70406;SDS011;57821;52.202;0.154;2022-12-17T06:58:56;25.95;;;10.52;;
70406;SDS011;57821;52.202;0.154;2022-12-17T07:01:22;32.00;;;11.95;;
70406;SDS011;57821;52.202;0.154;2022-12-17T07:03:49;25.20;;;12.32;;
70406;SDS011;57821;52.202;0.154;2022-12-17T07:06:15;22.25;;;10.57;;
70406;SDS011;57821;52.202;0.154;2022-12-17T07:08:42;24.08;;;10.60;;
70406;SDS011;57821;52.202;0.154;2022-12-17T07:11:08;27.23;;;10.90;;
70406;SDS011;57821;52.202;0.154;2022-12-17T07:13:35;25.70;;;12.23;;
70406;SDS011;57821;52.202;0.154;2022-12-17T07:16:02;25.30;;;11.60;;
70406;SDS011;57821;52.202;0.154;2022-12-17T07:18:29;32.92;;;13.50;;
70406;SDS011;57821;52.202;0.154;2022-12-17T07:20:55;25.17;;;11.27;;
70406;SDS011;57821;52.202;0.154;2022-12-17T07:23:22;25.38;;;11.45;;
70406;SDS011;57821;52.202;0.154;2022-12-17T07:25:48;25.58;;;12.45;;
70406;SDS011;57821;52.202;0.154;2022-12-17T07:28:15;28.00;;;11.57;;
70406;SDS011;57821;52.202;0.154;2022-12-17T07:30:41;27.13;;;12.38;;
70406;SDS011;57821;52.202;0.154;2022-12-17T07:33:08;29.73;;;12.43;;
70406;SDS011;57821;52.202;0.154;2022-12-17T07:35:35;22.08;;;11.43;;
70406;SDS011;57821;52.202;0.154;2022-12-17T07:38:02;22.70;;;10.68;;
70406;SDS011;57821;52.202;0.154;2022-12-17T07:40:29;28.33;;;12.88;;
70406;SDS011;57821;52.202;0.154;2022-12-17T07:42:55;23.83;;;11.43;;
70406;SDS011;57821;52.202;0.154;2022-12-17T07:45:22;22.75;;;11.77;;
70406;SDS011;57821;52.202;0.154;2022-12-17T07:47:55;26.67;;;12.48;;
70406;SDS011;57821;52.202;0.154;2022-12-17T07:50:21;25.73;;;11.63;;
70406;SDS011;57821;52.202;0.154;2022-12-17T07:52:56;26.67;;;12.88;;
70406;SDS011;57821;52.202;0.154;2022-12-17T07:55:27;25.20;;;12.63;;
70406;SDS011;57821;52.202;0.154;2022-12-17T07:57:57;33.28;;;12.40;;
70406;SDS011;57821;52.202;0.154;2022-12-17T08:00:24;24.35;;;11.52;;
70406;SDS011;57821;52.202;0.154;2022-12-17T08:02:57;30.15;;;13.35;;
70406;SDS011;57821;52.202;0.154;2022-12-17T08:05:25;27.40;;;12.20;;
70406;SDS011;57821;52.202;0.154;2022-12-17T08:07:51;26.63;;;11.95;;
70406;SDS011;57821;52.202;0.154;2022-12-17T08:10:18;28.73;;;11.98;;
70406;SDS011;57821;52.202;0.154;2022-12-17T08:12:56;29.08;;;12.02;;
70406;SDS011;57821;52.202;0.154;2022-12-17T08:15:27;29.75;;;12.38;;
70406;SDS011;57821;52.202;0.154;2022-12-17T08:17:58;33.42;;;12.52;;
70406;SDS011;57821;52.202;0.154;2022-12-17T08:20:26;28.67;;;12.13;;
70406;SDS011;57821;52.202;0.154;2022-12-17T08:22:59;24.40;;;11.15;;
70406;SDS011;57821;52.202;0.154;2022-12-17T08:25:26;25.95;;;10.82;;
70406;SDS011;57821;52.202;0.154;2022-12-17T08:27:56;28.00;;;11.30;;
70406;SDS011;57821;52.202;0.154;2022-12-17T08:30:24;27.60;;;11.85;;
70406;SDS011;57821;52.202;0.154;2022-12-17T08:32:50;23.83;;;11.85;;
70406;SDS011;57821;52.202;0.154;2022-12-17T08:35:17;22.85;;;11.45;;
70406;SDS011;57821;52.202;0.154;2022-12-17T08:37:43;28.67;;;12.38;;
70406;SDS011;57821;52.202;0.154;2022-12-17T08:40:10;26.90;;;11.38;;
70406;SDS011;57821;52.202;0.154;2022-12-17T08:42:36;26.55;;;11.57;;
70406;SDS011;57821;52.202;0.154;2022-12-17T08:45:03;24.48;;;12.30;;
70406;SDS011;57821;52.202;0.154;2022-12-17T08:47:30;29.08;;;12.43;;
70406;SDS011;57821;52.202;0.154;2022-12-17T08:49:56;24.35;;;11.20;;
70406;SDS011;57821;52.202;0.154;2022-12-17T08:52:23;26.00;;;11.40;;
70406;SDS011;57821;52.202;0.154;2022-12-17T08:54:49;32.67;;;12.05;;
70406;SDS011;57821;52.202;0.154;2022-12-17T08:57:15;24.17;;;11.52;;
70406;SDS011;57821;52.202;0.154;2022-12-17T08:59:56;25.08;;;11.15;;
70406;SDS011;57821;52.202;0.154;2022-12-17T09:02:23;21.55;;;11.23;;
70406;SDS011;57821;52.202;0.154;2022-12-17T09:04:50;26.08;;;11.82;;
70406;SDS011;57821;52.202;0.154;2022-12-17T09:07:16;23.48;;;10.05;;
70406;SDS011;57821;52.202;0.154;2022-12-17T09:09:42;27.05;;;11.25;;
70406;SDS011;57821;52.202;0.154;2022-12-17T09:12:09;24.40;;;10.68;;
70406;SDS011;57821;52.202;0.154;2022-12-17T09:14:35;21.33;;;10.57;;
70406;SDS011;57821;52.202;0.154;2022-12-17T09:17:02;28.75;;;11.00;;
70406;SDS011;57821;52.202;0.154;2022-12-17T09:19:29;23.58;;;10.88;;
70406;SDS011;57821;52.202;0.154;2022-12-17T09:21:55;24.95;;;10.85;;
70406;SDS011;57821;52.202;0.154;2022-12-17T09:24:22;27.35;;;12.00;;
70406;SDS011;57821;52.202;0.154;2022-12-17T09:26:48;26.92;;;11.20;;
70406;SDS011;57821;52.202;0.154;2022-12-17T09:29:15;25.08;;;11.38;;
70406;SDS011;57821;52.202;0.154;2022-12-17T09:31:41;23.25;;;10.73;;
70406;SDS011;57821;52.202;0.154;2022-12-17T09:34:08;25.02;;;11.02;;
70406;SDS011;57821;52.202;0.154;2022-12-17T09:36:34;22.08;;;11.25;;
70406;SDS011;57821;52.202;0.154;2022-12-17T09:39:01;22.75;;;10.13;;
70406;SDS011;57821;52.202;0.154;2022-12-17T09:41:28;23.75;;;10.23;;
70406;SDS011;57821;52.202;0.154;2022-12-17T09:44:20;22.45;;;10.27;;
70406;SDS011;57821;52.202;0.154;2022-12-17T09:46:55;20.53;;;10.07;;
70406;SDS011;57821;52.202;0.154;2022-12-17T09:49:32;20.85;;;10.07;;
70406;SDS011;57821;52.202;0.154;2022-12-17T09:51:58;19.65;;;8.95;;
70406;SDS011;57821;52.202;0.154;2022-12-17T09:54:31;20.30;;;9.38;;
70406;SDS011;57821;52.202;0.154;2022-12-17T09:57:00;18.95;;;9.25;;
70406;SDS011;57821;52.202;0.154;2022-12-17T09:59:27;20.73;;;10.48;;
70406;SDS011;57821;52.202;0.154;2022-12-17T10:01:58;24.10;;;9.95;;
70406;SDS011;57821;52.202;0.154;2022-12-17T10:07:13;21.98;;;8.50;;
70406;SDS011;57821;52.202;0.154;2022-12-17T10:09:42;16.92;;;10.43;;
70406;SDS011;57821;52.202;0.154;2022-12-17T10:12:19;19.13;;;9.70;;
70406;SDS011;57821;52.202;0.154;2022-12-17T10:14:46;19.92;;;9.38;;
70406;SDS011;57821;52.202;0.154;2022-12-17T10:17:17;17.08;;;9.43;;
70406;SDS011;57821;52.202;0.154;2022-12-17T10:19:48;18.15;;;9.30;;
70406;SDS011;57821;52.202;0.154;2022-12-17T10:22:17;20.42;;;10.82;;
70406;SDS011;57821;52.202;0.154;2022-12-17T10:24:44;18.20;;;9.40;;
70406;SDS011;57821;52.202;0.154;2022-12-17T10:27:14;16.42;;;8.68;;
70406;SDS011;57821;52.202;0.154;2022-12-17T10:29:45;17.30;;;9.60;;
70406;SDS011;57821;52.202;0.154;2022-12-17T10:34:40;26.77;;;10.77;;
70406;SDS011;57821;52.202;0.154;2022-12-17T10:37:18;17.88;;;9.70;;
70406;SDS011;57821;52.202;0.154;2022-12-17T10:39:58;18.35;;;9.23;;
70406;SDS011;57821;52.202;0.154;2022-12-17T10:42:42;18.25;;;9.13;;
70406;SDS011;57821;52.202;0.154;2022-12-17T10:45:20;20.85;;;9.73;;
70406;SDS011;57821;52.202;0.154;2022-12-17T10:47:51;16.00;;;9.10;;
70406;SDS011;57821;52.202;0.154;2022-12-17T10:50:19;21.80;;;9.90;;
70406;SDS011;57821;52.202;0.154;2022-12-17T10:52:47;20.45;;;9.15;;
70406;SDS011;57821;52.202;0.154;2022-12-17T10:55:26;22.50;;;10.15;;
70406;SDS011;57821;52.202;0.154;2022-12-17T10:57:54;23.88;;;10.13;;
70406;SDS011;57821;52.202;0.154;2022-12-17T11:00:29;19.00;;;8.63;;
70406;SDS011;57821;52.202;0.154;2022-12-17T11:02:58;18.40;;;8.65;;
70406;SDS011;57821;52.202;0.154;2022-12-17T11:08:00;25.30;;;10.00;;
70406;SDS011;57821;52.202;0.154;2022-12-17T11:10:28;20.38;;;9.13;;
70406;SDS011;57821;52.202;0.154;2022-12-17T11:12:58;19.33;;;8.68;;
70406;SDS011;57821;52.202;0.154;2022-12-17T11:15:44;17.92;;;8.73;;
70406;SDS011;57821;52.202;0.154;2022-12-17T11:18:22;18.58;;;8.88;;
70406;SDS011;57821;52.202;0.154;2022-12-17T11:21:30;14.98;;;7.97;;
70406;SDS011;57821;52.202;0.154;2022-12-17T11:23:53;14.18;;;8.15;;
70406;SDS011;57821;52.202;0.154;2022-12-17T11:26:20;18.08;;;8.27;;
70406;SDS011;57821;52.202;0.154;2022-12-17T11:28:50;17.27;;;8.35;;
70406;SDS011;57821;52.202;0.154;2022-12-17T11:33:46;22.83;;;8.23;;
70406;SDS011;57821;52.202;0.154;2022-12-17T11:36:23;18.23;;;8.45;;
70406;SDS011;57821;52.202;0.154;2022-12-17T11:42:00;15.50;;;8.15;;
70406;SDS011;57821;52.202;0.154;2022-12-17T11:47:36;22.15;;;8.93;;
70406;SDS011;57821;52.202;0.154;2022-12-17T11:53:05;18.83;;;9.15;;
70406;SDS011;57821;52.202;0.154;2022-12-17T11:55:45;18.33;;;8.20;;
70406;SDS011;57821;52.202;0.154;2022-12-17T11:58:33;24.38;;;9.85;;
70406;SDS011;57821;52.202;0.154;2022-12-17T12:06:57;15.73;;;8.15;;
70406;SDS011;57821;52.202;0.154;2022-12-17T12:15:32;13.52;;;7.15;;
70406;SDS011;57821;52.202;0.154;2022-12-17T12:18:14;16.85;;;7.43;;
70406;SDS011;57821;52.202;0.154;2022-12-17T12:26:12;13.43;;;7.28;;
70406;SDS011;57821;52.202;0.154;2022-12-17T12:33:59;20.67;;;7.53;;
70406;SDS011;57821;52.202;0.154;2022-12-17T12:36:38;15.20;;;6.72;;
70406;SDS011;57821;52.202;0.154;2022-12-17T12:39:08;17.58;;;6.60;;
70406;SDS011;57821;52.202;0.154;2022-12-17T12:47:01;15.73;;;7.80;;
70406;SDS011;57821;52.202;0.154;2022-12-17T12:49:43;20.45;;;7.97;;
70406;SDS011;57821;52.202;0.154;2022-12-17T12:52:21;19.77;;;7.90;;
70406;SDS011;57821;52.202;0.154;2022-12-17T12:54:51;18.05;;;7.70;;
70406;SDS011;57821;52.202;0.154;2022-12-17T12:57:26;18.13;;;7.53;;
70406;SDS011;57821;52.202;0.154;2022-12-17T12:59:59;16.55;;;7.50;;
70406;SDS011;57821;52.202;0.154;2022-12-17T13:02:26;17.23;;;7.45;;
70406;SDS011;57821;52.202;0.154;2022-12-17T13:04:55;14.48;;;7.50;;
70406;SDS011;57821;52.202;0.154;2022-12-17T13:07:26;15.57;;;7.38;;
70406;SDS011;57821;52.202;0.154;2022-12-17T13:09:55;12.90;;;6.93;;
70406;SDS011;57821;52.202;0.154;2022-12-17T13:12:25;19.95;;;7.47;;
70406;SDS011;57821;52.202;0.154;2022-12-17T13:17:26;14.63;;;7.47;;
70406;SDS011;57821;52.202;0.154;2022-12-17T13:22:26;13.07;;;7.82;;
70406;SDS011;57821;52.202;0.154;2022-12-17T13:24:55;15.90;;;7.25;;
70406;SDS011;57821;52.202;0.154;2022-12-17T13:27:39;20.70;;;8.65;;
70406;SDS011;57821;52.202;0.154;2022-12-17T13:35:34;18.88;;;8.40;;
70406;SDS011;57821;52.202;0.154;2022-12-17T13:38:29;17.35;;;8.25;;
70406;SDS011;57821;52.202;0.154;2022-12-17T13:41:07;17.20;;;7.95;;
70406;SDS011;57821;52.202;0.154;2022-12-17T13:43:43;18.52;;;7.97;;
70406;SDS011;57821;52.202;0.154;2022-12-17T13:46:28;18.55;;;7.53;;
70406;SDS011;57821;52.202;0.154;2022-12-17T13:52:05;15.15;;;8.05;;
70406;SDS011;57821;52.202;0.154;2022-12-17T13:54:41;19.10;;;8.88;;
70406;SDS011;57821;52.202;0.154;2022-12-17T13:57:08;17.13;;;8.50;;
70406;SDS011;57821;52.202;0.154;2022-12-17T13:59:36;18.73;;;8.57;;
70406;SDS011;57821;52.202;0.154;2022-12-17T14:02:03;18.55;;;8.68;;
70406;SDS011;57821;52.202;0.154;2022-12-17T14:04:30;20.58;;;8.15;;
70406;SDS011;57821;52.202;0.154;2022-12-17T14:06:57;21.25;;;8.50;;
70406;SDS011;57821;52.202;0.154;2022-12-17T14:09:33;15.10;;;8.80;;
70406;SDS011;57821;52.202;0.154;2022-12-17T14:12:04;15.90;;;8.73;;
70406;SDS011;57821;52.202;0.154;2022-12-17T14:14:32;18.25;;;8.50;;
70406;SDS011;57821;52.202;0.154;2022-12-17T14:17:04;15.18;;;9.32;;
70406;SDS011;57821;52.202;0.154;2022-12-17T14:19:31;17.52;;;8.75;;
70406;SDS011;57821;52.202;0.154;2022-12-17T14:21:59;24.38;;;9.80;;
70406;SDS011;57821;52.202;0.154;2022-12-17T14:24:26;19.88;;;9.70;;
70406;SDS011;57821;52.202;0.154;2022-12-17T14:26:55;18.27;;;9.40;;
70406;SDS011;57821;52.202;0.154;2022-12-17T14:29:23;17.85;;;9.73;;
70406;SDS011;57821;52.202;0.154;2022-12-17T14:31:58;18.42;;;9.65;;
70406;SDS011;57821;52.202;0.154;2022-12-17T14:34:26;20.58;;;10.38;;
70406;SDS011;57821;52.202;0.154;2022-12-17T14:36:57;19.30;;;9.63;;
70406;SDS011;57821;52.202;0.154;2022-12-17T14:39:28;18.92;;;10.10;;
70406;SDS011;57821;52.202;0.154;2022-12-17T14:42:06;21.70;;;9.57;;
70406;SDS011;57821;52.202;0.154;2022-12-17T14:47:28;22.90;;;10.05;;
70406;SDS011;57821;52.202;0.154;2022-12-17T14:49:58;22.75;;;9.93;;
70406;SDS011;57821;52.202;0.154;2022-12-17T14:52:42;22.70;;;10.32;;
70406;SDS011;57821;52.202;0.154;2022-12-17T14:58:21;20.63;;;10.73;;
70406;SDS011;57821;52.202;0.154;2022-12-17T15:03:31;20.60;;;10.45;;
70406;SDS011;57821;52.202;0.154;2022-12-17T15:06:00;19.55;;;11.00;;
70406;SDS011;57821;52.202;0.154;2022-12-17T15:08:30;21.77;;;11.70;;
70406;SDS011;57821;52.202;0.154;2022-12-17T15:11:01;19.35;;;10.18;;
70406;SDS011;57821;52.202;0.154;2022-12-17T15:13:28;20.77;;;10.70;;
70406;SDS011;57821;52.202;0.154;2022-12-17T15:15:54;20.80;;;11.10;;
70406;SDS011;57821;52.202;0.154;2022-12-17T15:18:22;22.70;;;11.10;;
70406;SDS011;57821;52.202;0.154;2022-12-17T15:20:49;21.95;;;10.68;;
70406;SDS011;57821;52.202;0.154;2022-12-17T15:23:17;21.15;;;11.75;;
70406;SDS011;57821;52.202;0.154;2022-12-17T15:25:46;23.42;;;11.45;;
70406;SDS011;57821;52.202;0.154;2022-12-17T15:28:15;19.63;;;11.50;;
70406;SDS011;57821;52.202;0.154;2022-12-17T15:30:43;25.73;;;12.00;;
70406;SDS011;57821;52.202;0.154;2022-12-17T15:33:10;21.90;;;12.60;;
70406;SDS011;57821;52.202;0.154;2022-12-17T15:35:37;23.80;;;12.35;;
70406;SDS011;57821;52.202;0.154;2022-12-17T15:38:04;23.10;;;12.82;;
70406;SDS011;57821;52.202;0.154;2022-12-17T15:40:31;26.27;;;13.27;;
70406;SDS011;57821;52.202;0.154;2022-12-17T15:42:58;23.98;;;12.25;;
70406;SDS011;57821;52.202;0.154;2022-12-17T15:45:31;24.33;;;12.43;;
70406;SDS011;57821;52.202;0.154;2022-12-17T15:47:58;25.67;;;12.70;;
70406;SDS011;57821;52.202;0.154;2022-12-17T15:50:24;21.88;;;11.88;;
70406;SDS011;57821;52.202;0.154;2022-12-17T15:52:51;29.65;;;13.93;;
70406;SDS011;57821;52.202;0.154;2022-12-17T15:55:17;24.85;;;13.18;;
70406;SDS011;57821;52.202;0.154;2022-12-17T15:57:44;23.15;;;11.98;;